sensor_id;sensor_type;location;lat;lon;timestamp;P1;durP1;ratioP1;P2;durP2;ratioP2
51148;SDS011;37210;50.058;8.688;2023-07-24T00:01:42;3.45;;;2.65;;
51148;SDS011;37210;50.058;8.688;2023-07-24T00:04:09;3.47;;;2.67;;
51148;SDS011;37210;50.058;8.688;2023-07-24T00:06:36;3.13;;;2.83;;
51148;SDS011;37210;50.058;8.688;2023-07-24T00:09:05;3.33;;;2.50;;
51148;SDS011;37210;50.058;8.688;2023-07-24T00:11:32;2.75;;;2.35;;
51148;SDS011;37210;50.058;8.688;2023-07-24T00:14:00;3.03;;;2.53;;
51148;SDS011;37210;50.058;8.688;2023-07-24T00:16:27;3.92;;;2.55;;
51148;SDS011;37210;50.058;8.688;2023-07-24T00:18:55;3.55;;;2.40;;
51148;SDS011;37210;50.058;8.688;2023-07-24T00:21:22;3.58;;;2.58;;
51148;SDS011;37210;50.058;8.688;2023-07-24T00:23:49;3.35;;;2.60;;
51148;SDS011;37210;50.058;8.688;2023-07-24T00:26:18;3.20;;;2.85;;
51148;SDS011;37210;50.058;8.688;2023-07-24T00:28:46;3.30;;;2.53;;
51148;SDS011;37210;50.058;8.688;2023-07-24T00:31:14;2.60;;;2.40;;
51148;SDS011;37210;50.058;8.688;2023-07-24T00:33:43;2.72;;;2.47;;
51148;SDS011;37210;50.058;8.688;2023-07-24T00:36:11;2.63;;;2.30;;
51148;SDS011;37210;50.058;8.688;2023-07-24T00:38:38;4.05;;;2.90;;
51148;SDS011;37210;50.058;8.688;2023-07-24T00:41:06;3.25;;;2.55;;
51148;SDS011;37210;50.058;8.688;2023-07-24T00:43:35;2.97;;;2.42;;
51148;SDS011;37210;50.058;8.688;2023-07-24T00:46:02;2.65;;;2.30;;
51148;SDS011;37210;50.058;8.688;2023-07-24T00:48:30;2.65;;;2.30;;
51148;SDS011;37210;50.058;8.688;2023-07-24T00:50:57;2.72;;;2.40;;
51148;SDS011;37210;50.058;8.688;2023-07-24T00:53:25;3.17;;;2.55;;
51148;SDS011;37210;50.058;8.688;2023-07-24T00:55:53;3.65;;;2.58;;
51148;SDS011;37210;50.058;8.688;2023-07-24T00:58:20;3.38;;;2.55;;
51148;SDS011;37210;50.058;8.688;2023-07-24T01:00:50;3.05;;;2.58;;
51148;SDS011;37210;50.058;8.688;2023-07-24T01:03:18;3.30;;;2.75;;
51148;SDS011;37210;50.058;8.688;2023-07-24T01:05:46;2.85;;;2.55;;
51148;SDS011;37210;50.058;8.688;2023-07-24T01:08:13;2.88;;;2.63;;
51148;SDS011;37210;50.058;8.688;2023-07-24T01:10:41;3.17;;;2.70;;
51148;SDS011;37210;50.058;8.688;2023-07-24T01:13:13;3.25;;;2.40;;
51148;SDS011;37210;50.058;8.688;2023-07-24T01:15:48;3.38;;;2.83;;
51148;SDS011;37210;50.058;8.688;2023-07-24T01:18:26;3.10;;;2.50;;
51148;SDS011;37210;50.058;8.688;2023-07-24T01:20:57;4.57;;;2.50;;
51148;SDS011;37210;50.058;8.688;2023-07-24T01:23:31;2.50;;;2.30;;
51148;SDS011;37210;50.058;8.688;2023-07-24T01:26:20;4.10;;;2.83;;
51148;SDS011;37210;50.058;8.688;2023-07-24T01:28:50;4.30;;;3.10;;
51148;SDS011;37210;50.058;8.688;2023-07-24T01:31:18;4.47;;;2.30;;
51148;SDS011;37210;50.058;8.688;2023-07-24T01:33:46;3.05;;;2.50;;
51148;SDS011;37210;50.058;8.688;2023-07-24T01:36:17;3.05;;;2.33;;
51148;SDS011;37210;50.058;8.688;2023-07-24T01:38:46;3.40;;;2.65;;
51148;SDS011;37210;50.058;8.688;2023-07-24T01:41:16;3.22;;;2.80;;
51148;SDS011;37210;50.058;8.688;2023-07-24T01:43:46;2.67;;;2.47;;
51148;SDS011;37210;50.058;8.688;2023-07-24T01:46:14;3.63;;;2.70;;
51148;SDS011;37210;50.058;8.688;2023-07-24T01:48:42;3.25;;;2.90;;
51148;SDS011;37210;50.058;8.688;2023-07-24T01:51:10;2.90;;;2.38;;
51148;SDS011;37210;50.058;8.688;2023-07-24T01:53:37;3.22;;;2.67;;
51148;SDS011;37210;50.058;8.688;2023-07-24T01:56:05;4.07;;;3.00;;
51148;SDS011;37210;50.058;8.688;2023-07-24T01:58:32;3.00;;;2.72;;
51148;SDS011;37210;50.058;8.688;2023-07-24T02:01:01;2.90;;;2.60;;
51148;SDS011;37210;50.058;8.688;2023-07-24T02:03:29;3.08;;;2.78;;
51148;SDS011;37210;50.058;8.688;2023-07-24T02:05:56;3.88;;;2.70;;
51148;SDS011;37210;50.058;8.688;2023-07-24T02:08:23;3.53;;;2.85;;
51148;SDS011;37210;50.058;8.688;2023-07-24T02:10:51;3.20;;;2.90;;
51148;SDS011;37210;50.058;8.688;2023-07-24T02:13:18;3.67;;;3.20;;
51148;SDS011;37210;50.058;8.688;2023-07-24T02:15:48;3.42;;;3.13;;
51148;SDS011;37210;50.058;8.688;2023-07-24T02:18:18;4.47;;;2.88;;
51148;SDS011;37210;50.058;8.688;2023-07-24T02:20:48;3.97;;;3.25;;
51148;SDS011;37210;50.058;8.688;2023-07-24T02:23:17;3.28;;;2.75;;
51148;SDS011;37210;50.058;8.688;2023-07-24T02:25:44;3.60;;;2.95;;
51148;SDS011;37210;50.058;8.688;2023-07-24T02:28:11;4.13;;;2.80;;
51148;SDS011;37210;50.058;8.688;2023-07-24T02:30:39;4.93;;;3.00;;
51148;SDS011;37210;50.058;8.688;2023-07-24T02:33:07;3.50;;;2.95;;
51148;SDS011;37210;50.058;8.688;2023-07-24T02:35:39;3.17;;;2.88;;
51148;SDS011;37210;50.058;8.688;2023-07-24T02:38:07;3.05;;;2.75;;
51148;SDS011;37210;50.058;8.688;2023-07-24T02:40:35;3.10;;;2.80;;
51148;SDS011;37210;50.058;8.688;2023-07-24T02:43:02;3.78;;;2.88;;
51148;SDS011;37210;50.058;8.688;2023-07-24T02:45:30;3.30;;;2.60;;
51148;SDS011;37210;50.058;8.688;2023-07-24T02:48:01;2.95;;;2.50;;
51148;SDS011;37210;50.058;8.688;2023-07-24T02:50:29;2.97;;;2.67;;
51148;SDS011;37210;50.058;8.688;2023-07-24T02:52:58;3.53;;;2.90;;
51148;SDS011;37210;50.058;8.688;2023-07-24T02:55:26;4.75;;;3.35;;
51148;SDS011;37210;50.058;8.688;2023-07-24T02:57:53;3.80;;;3.50;;
51148;SDS011;37210;50.058;8.688;2023-07-24T03:00:21;3.90;;;3.38;;
51148;SDS011;37210;50.058;8.688;2023-07-24T03:02:49;3.90;;;3.38;;
51148;SDS011;37210;50.058;8.688;2023-07-24T03:05:16;3.75;;;3.45;;
51148;SDS011;37210;50.058;8.688;2023-07-24T03:07:44;5.50;;;4.18;;
51148;SDS011;37210;50.058;8.688;2023-07-24T03:10:14;3.38;;;2.97;;
51148;SDS011;37210;50.058;8.688;2023-07-24T03:12:41;3.42;;;3.13;;
51148;SDS011;37210;50.058;8.688;2023-07-24T03:15:09;3.35;;;3.05;;
51148;SDS011;37210;50.058;8.688;2023-07-24T03:17:37;4.05;;;3.65;;
51148;SDS011;37210;50.058;8.688;2023-07-24T03:20:08;5.32;;;3.50;;
51148;SDS011;37210;50.058;8.688;2023-07-24T03:22:36;4.13;;;3.72;;
51148;SDS011;37210;50.058;8.688;2023-07-24T03:25:04;4.35;;;3.58;;
51148;SDS011;37210;50.058;8.688;2023-07-24T03:27:33;4.60;;;4.20;;
51148;SDS011;37210;50.058;8.688;2023-07-24T03:30:01;4.63;;;3.45;;
51148;SDS011;37210;50.058;8.688;2023-07-24T03:32:29;3.92;;;3.53;;
51148;SDS011;37210;50.058;8.688;2023-07-24T03:34:56;4.47;;;4.07;;
51148;SDS011;37210;50.058;8.688;2023-07-24T03:37:24;3.97;;;3.55;;
51148;SDS011;37210;50.058;8.688;2023-07-24T03:39:51;4.82;;;3.83;;
51148;SDS011;37210;50.058;8.688;2023-07-24T03:42:24;4.38;;;3.97;;
51148;SDS011;37210;50.058;8.688;2023-07-24T03:44:54;4.72;;;3.95;;
51148;SDS011;37210;50.058;8.688;2023-07-24T03:47:23;4.57;;;3.72;;
51148;SDS011;37210;50.058;8.688;2023-07-24T03:49:51;4.53;;;4.05;;
51148;SDS011;37210;50.058;8.688;2023-07-24T03:52:18;5.03;;;3.88;;
51148;SDS011;37210;50.058;8.688;2023-07-24T03:54:46;5.45;;;4.20;;
51148;SDS011;37210;50.058;8.688;2023-07-24T03:57:13;5.80;;;4.35;;
51148;SDS011;37210;50.058;8.688;2023-07-24T03:59:41;5.40;;;4.18;;
51148;SDS011;37210;50.058;8.688;2023-07-24T04:02:09;5.15;;;4.40;;
51148;SDS011;37210;50.058;8.688;2023-07-24T04:04:37;6.80;;;4.53;;
51148;SDS011;37210;50.058;8.688;2023-07-24T04:07:05;5.15;;;4.03;;
51148;SDS011;37210;50.058;8.688;2023-07-24T04:09:32;5.68;;;4.10;;
51148;SDS011;37210;50.058;8.688;2023-07-24T04:12:00;4.72;;;3.90;;
51148;SDS011;37210;50.058;8.688;2023-07-24T04:14:27;4.30;;;3.90;;
51148;SDS011;37210;50.058;8.688;2023-07-24T04:16:55;4.55;;;4.07;;
51148;SDS011;37210;50.058;8.688;2023-07-24T04:19:24;4.72;;;4.18;;
51148;SDS011;37210;50.058;8.688;2023-07-24T04:21:51;5.18;;;4.50;;
51148;SDS011;37210;50.058;8.688;2023-07-24T04:24:18;4.50;;;4.10;;
51148;SDS011;37210;50.058;8.688;2023-07-24T04:26:46;5.10;;;4.32;;
51148;SDS011;37210;50.058;8.688;2023-07-24T04:29:13;5.90;;;4.00;;
51148;SDS011;37210;50.058;8.688;2023-07-24T04:31:41;5.20;;;4.07;;
51148;SDS011;37210;50.058;8.688;2023-07-24T04:34:08;5.95;;;4.13;;
51148;SDS011;37210;50.058;8.688;2023-07-24T04:36:37;6.22;;;3.88;;
51148;SDS011;37210;50.058;8.688;2023-07-24T04:39:04;6.75;;;4.63;;
51148;SDS011;37210;50.058;8.688;2023-07-24T04:41:31;5.60;;;3.80;;
51148;SDS011;37210;50.058;8.688;2023-07-24T04:43:59;4.88;;;4.38;;
51148;SDS011;37210;50.058;8.688;2023-07-24T04:46:26;6.97;;;4.40;;
51148;SDS011;37210;50.058;8.688;2023-07-24T04:48:54;6.18;;;3.95;;
51148;SDS011;37210;50.058;8.688;2023-07-24T04:51:21;4.18;;;3.78;;
51148;SDS011;37210;50.058;8.688;2023-07-24T04:53:50;4.55;;;3.95;;
51148;SDS011;37210;50.058;8.688;2023-07-24T04:56:17;4.75;;;4.25;;
51148;SDS011;37210;50.058;8.688;2023-07-24T04:58:44;6.20;;;4.15;;
51148;SDS011;37210;50.058;8.688;2023-07-24T05:01:12;4.72;;;3.78;;
51148;SDS011;37210;50.058;8.688;2023-07-24T05:03:39;4.88;;;3.42;;
51148;SDS011;37210;50.058;8.688;2023-07-24T05:06:06;5.95;;;4.15;;
51148;SDS011;37210;50.058;8.688;2023-07-24T05:08:34;4.55;;;4.00;;
51148;SDS011;37210;50.058;8.688;2023-07-24T05:11:03;5.07;;;4.20;;
51148;SDS011;37210;50.058;8.688;2023-07-24T05:13:30;5.38;;;3.97;;
51148;SDS011;37210;50.058;8.688;2023-07-24T05:15:58;4.30;;;3.83;;
51148;SDS011;37210;50.058;8.688;2023-07-24T05:18:25;5.03;;;4.22;;
51148;SDS011;37210;50.058;8.688;2023-07-24T05:20:53;4.25;;;3.85;;
51148;SDS011;37210;50.058;8.688;2023-07-24T05:23:20;6.05;;;4.95;;
51148;SDS011;37210;50.058;8.688;2023-07-24T05:25:55;5.55;;;4.72;;
51148;SDS011;37210;50.058;8.688;2023-07-24T05:28:26;6.25;;;4.38;;
51148;SDS011;37210;50.058;8.688;2023-07-24T05:30:53;5.80;;;4.97;;
51148;SDS011;37210;50.058;8.688;2023-07-24T05:33:21;5.65;;;4.88;;
51148;SDS011;37210;50.058;8.688;2023-07-24T05:35:48;5.30;;;4.80;;
51148;SDS011;37210;50.058;8.688;2023-07-24T05:38:16;5.82;;;4.70;;
51148;SDS011;37210;50.058;8.688;2023-07-24T05:40:43;5.60;;;4.10;;
51148;SDS011;37210;50.058;8.688;2023-07-24T05:43:11;7.80;;;4.90;;
51148;SDS011;37210;50.058;8.688;2023-07-24T05:45:40;6.47;;;4.68;;
51148;SDS011;37210;50.058;8.688;2023-07-24T05:48:07;6.10;;;5.28;;
51148;SDS011;37210;50.058;8.688;2023-07-24T05:50:34;5.88;;;4.95;;
51148;SDS011;37210;50.058;8.688;2023-07-24T05:53:02;5.90;;;5.18;;
51148;SDS011;37210;50.058;8.688;2023-07-24T05:55:29;6.45;;;5.45;;
51148;SDS011;37210;50.058;8.688;2023-07-24T05:57:56;6.72;;;5.30;;
51148;SDS011;37210;50.058;8.688;2023-07-24T06:00:24;6.80;;;5.35;;
51148;SDS011;37210;50.058;8.688;2023-07-24T06:02:53;5.72;;;4.97;;
51148;SDS011;37210;50.058;8.688;2023-07-24T06:05:21;6.82;;;5.32;;
51148;SDS011;37210;50.058;8.688;2023-07-24T06:07:48;6.32;;;5.15;;
51148;SDS011;37210;50.058;8.688;2023-07-24T06:10:16;6.45;;;5.10;;
51148;SDS011;37210;50.058;8.688;2023-07-24T06:12:43;8.30;;;6.03;;
51148;SDS011;37210;50.058;8.688;2023-07-24T06:15:10;7.53;;;5.35;;
51148;SDS011;37210;50.058;8.688;2023-07-24T06:17:38;6.18;;;5.35;;
51148;SDS011;37210;50.058;8.688;2023-07-24T06:20:07;5.88;;;5.20;;
51148;SDS011;37210;50.058;8.688;2023-07-24T06:22:35;8.02;;;6.22;;
51148;SDS011;37210;50.058;8.688;2023-07-24T06:25:03;6.50;;;5.50;;
51148;SDS011;37210;50.058;8.688;2023-07-24T06:27:31;6.68;;;5.25;;
51148;SDS011;37210;50.058;8.688;2023-07-24T06:29:58;7.20;;;5.55;;
51148;SDS011;37210;50.058;8.688;2023-07-24T06:32:26;6.72;;;5.35;;
51148;SDS011;37210;50.058;8.688;2023-07-24T06:34:54;9.60;;;6.22;;
51148;SDS011;37210;50.058;8.688;2023-07-24T06:37:22;8.15;;;5.70;;
51148;SDS011;37210;50.058;8.688;2023-07-24T06:39:50;5.95;;;5.28;;
51148;SDS011;37210;50.058;8.688;2023-07-24T06:42:17;7.60;;;6.07;;
51148;SDS011;37210;50.058;8.688;2023-07-24T06:44:44;6.32;;;5.13;;
51148;SDS011;37210;50.058;8.688;2023-07-24T06:47:12;6.90;;;6.25;;
51148;SDS011;37210;50.058;8.688;2023-07-24T06:49:39;7.72;;;5.90;;
51148;SDS011;37210;50.058;8.688;2023-07-24T06:52:07;7.35;;;6.60;;
51148;SDS011;37210;50.058;8.688;2023-07-24T06:54:35;9.35;;;6.45;;
51148;SDS011;37210;50.058;8.688;2023-07-24T06:57:03;7.78;;;5.93;;
51148;SDS011;37210;50.058;8.688;2023-07-24T06:59:31;8.95;;;6.95;;
51148;SDS011;37210;50.058;8.688;2023-07-24T07:01:59;8.27;;;7.38;;
51148;SDS011;37210;50.058;8.688;2023-07-24T07:04:26;8.95;;;6.63;;
51148;SDS011;37210;50.058;8.688;2023-07-24T07:06:53;8.73;;;6.60;;
51148;SDS011;37210;50.058;8.688;2023-07-24T07:09:21;9.32;;;6.88;;
51148;SDS011;37210;50.058;8.688;2023-07-24T07:11:50;8.32;;;6.55;;
51148;SDS011;37210;50.058;8.688;2023-07-24T07:14:17;8.18;;;6.50;;
51148;SDS011;37210;50.058;8.688;2023-07-24T07:16:45;6.90;;;6.05;;
51148;SDS011;37210;50.058;8.688;2023-07-24T07:19:13;7.43;;;6.20;;
51148;SDS011;37210;50.058;8.688;2023-07-24T07:21:40;7.50;;;6.38;;
51148;SDS011;37210;50.058;8.688;2023-07-24T07:24:08;7.75;;;6.30;;
51148;SDS011;37210;50.058;8.688;2023-07-24T07:26:35;8.85;;;6.85;;
51148;SDS011;37210;50.058;8.688;2023-07-24T07:29:04;6.65;;;5.75;;
51148;SDS011;37210;50.058;8.688;2023-07-24T07:31:31;7.78;;;6.05;;
51148;SDS011;37210;50.058;8.688;2023-07-24T07:33:59;6.22;;;5.53;;
51148;SDS011;37210;50.058;8.688;2023-07-24T07:36:28;7.05;;;5.82;;
51148;SDS011;37210;50.058;8.688;2023-07-24T07:38:55;7.18;;;5.38;;
51148;SDS011;37210;50.058;8.688;2023-07-24T07:41:23;7.95;;;5.38;;
51148;SDS011;37210;50.058;8.688;2023-07-24T07:43:50;6.10;;;5.30;;
51148;SDS011;37210;50.058;8.688;2023-07-24T07:46:19;5.32;;;4.82;;
51148;SDS011;37210;50.058;8.688;2023-07-24T07:48:46;6.97;;;4.72;;
51148;SDS011;37210;50.058;8.688;2023-07-24T07:51:14;6.07;;;4.85;;
51148;SDS011;37210;50.058;8.688;2023-07-24T07:53:42;4.72;;;3.92;;
51148;SDS011;37210;50.058;8.688;2023-07-24T07:56:09;6.78;;;4.47;;
51148;SDS011;37210;50.058;8.688;2023-07-24T07:58:37;4.70;;;4.28;;
51148;SDS011;37210;50.058;8.688;2023-07-24T08:01:04;4.95;;;4.43;;
51148;SDS011;37210;50.058;8.688;2023-07-24T08:03:33;5.50;;;4.35;;
51148;SDS011;37210;50.058;8.688;2023-07-24T08:06:01;4.30;;;3.90;;
51148;SDS011;37210;50.058;8.688;2023-07-24T08:08:28;4.90;;;3.90;;
51148;SDS011;37210;50.058;8.688;2023-07-24T08:10:55;4.85;;;3.92;;
51148;SDS011;37210;50.058;8.688;2023-07-24T08:13:23;4.88;;;4.22;;
51148;SDS011;37210;50.058;8.688;2023-07-24T08:15:50;5.45;;;4.10;;
51148;SDS011;37210;50.058;8.688;2023-07-24T08:18:18;5.25;;;4.15;;
51148;SDS011;37210;50.058;8.688;2023-07-24T08:20:46;4.30;;;3.35;;
51148;SDS011;37210;50.058;8.688;2023-07-24T08:23:14;4.88;;;3.97;;
51148;SDS011;37210;50.058;8.688;2023-07-24T08:25:50;5.40;;;3.60;;
51148;SDS011;37210;50.058;8.688;2023-07-24T08:28:18;4.65;;;4.00;;
51148;SDS011;37210;50.058;8.688;2023-07-24T08:30:46;4.63;;;4.15;;
51148;SDS011;37210;50.058;8.688;2023-07-24T08:33:22;5.50;;;4.25;;
51148;SDS011;37210;50.058;8.688;2023-07-24T08:35:59;4.35;;;3.83;;
51148;SDS011;37210;50.058;8.688;2023-07-24T08:38:28;4.53;;;3.97;;
51148;SDS011;37210;50.058;8.688;2023-07-24T08:41:02;3.70;;;3.38;;
51148;SDS011;37210;50.058;8.688;2023-07-24T08:43:32;4.38;;;3.53;;
51148;SDS011;37210;50.058;8.688;2023-07-24T08:46:02;3.47;;;3.17;;
51148;SDS011;37210;50.058;8.688;2023-07-24T08:48:32;4.18;;;3.60;;
51148;SDS011;37210;50.058;8.688;2023-07-24T08:51:04;3.45;;;3.15;;
51148;SDS011;37210;50.058;8.688;2023-07-24T08:53:33;3.72;;;3.25;;
51148;SDS011;37210;50.058;8.688;2023-07-24T08:56:02;4.50;;;3.53;;
51148;SDS011;37210;50.058;8.688;2023-07-24T08:58:30;4.93;;;3.50;;
51148;SDS011;37210;50.058;8.688;2023-07-24T09:00:59;4.40;;;3.47;;
51148;SDS011;37210;50.058;8.688;2023-07-24T09:03:28;5.05;;;3.67;;
51148;SDS011;37210;50.058;8.688;2023-07-24T09:05:57;3.70;;;3.08;;
51148;SDS011;37210;50.058;8.688;2023-07-24T09:08:31;4.97;;;4.22;;
51148;SDS011;37210;50.058;8.688;2023-07-24T09:11:01;3.38;;;3.08;;
51148;SDS011;37210;50.058;8.688;2023-07-24T09:13:31;7.05;;;3.60;;
51148;SDS011;37210;50.058;8.688;2023-07-24T09:15:59;3.55;;;3.25;;
51148;SDS011;37210;50.058;8.688;2023-07-24T09:18:26;16.42;;;15.00;;
51148;SDS011;37210;50.058;8.688;2023-07-24T09:21:05;3.80;;;3.28;;
51148;SDS011;37210;50.058;8.688;2023-07-24T09:23:34;4.80;;;4.35;;
51148;SDS011;37210;50.058;8.688;2023-07-24T09:26:04;30.08;;;27.08;;
51148;SDS011;37210;50.058;8.688;2023-07-24T09:28:32;6.18;;;5.50;;
51148;SDS011;37210;50.058;8.688;2023-07-24T09:31:00;12.63;;;11.27;;
51148;SDS011;37210;50.058;8.688;2023-07-24T09:33:33;11.30;;;10.13;;
51148;SDS011;37210;50.058;8.688;2023-07-24T09:36:03;4.55;;;4.15;;
51148;SDS011;37210;50.058;8.688;2023-07-24T09:38:34;9.50;;;8.60;;
51148;SDS011;37210;50.058;8.688;2023-07-24T09:41:03;12.90;;;11.60;;
51148;SDS011;37210;50.058;8.688;2023-07-24T09:43:32;13.35;;;12.07;;
51148;SDS011;37210;50.058;8.688;2023-07-24T09:46:01;5.35;;;4.32;;
51148;SDS011;37210;50.058;8.688;2023-07-24T09:48:32;21.75;;;19.60;;
51148;SDS011;37210;50.058;8.688;2023-07-24T09:51:00;14.05;;;12.50;;
51148;SDS011;37210;50.058;8.688;2023-07-24T09:53:32;18.33;;;16.48;;
51148;SDS011;37210;50.058;8.688;2023-07-24T09:56:06;9.05;;;7.10;;
51148;SDS011;37210;50.058;8.688;2023-07-24T09:58:36;71.45;;;64.38;;
51148;SDS011;37210;50.058;8.688;2023-07-24T10:01:07;77.70;;;70.13;;
51148;SDS011;37210;50.058;8.688;2023-07-24T10:03:38;85.47;;;77.70;;
51148;SDS011;37210;50.058;8.688;2023-07-24T10:06:08;15.65;;;14.05;;
51148;SDS011;37210;50.058;8.688;2023-07-24T10:08:38;5.60;;;4.72;;
51148;SDS011;37210;50.058;8.688;2023-07-24T10:11:06;7.90;;;7.15;;
51148;SDS011;37210;50.058;8.688;2023-07-24T10:13:35;5.35;;;4.80;;
51148;SDS011;37210;50.058;8.688;2023-07-24T10:16:03;11.02;;;10.00;;
51148;SDS011;37210;50.058;8.688;2023-07-24T10:18:33;9.18;;;7.65;;
51148;SDS011;37210;50.058;8.688;2023-07-24T10:21:03;46.28;;;41.88;;
51148;SDS011;37210;50.058;8.688;2023-07-24T10:23:33;18.88;;;17.02;;
51148;SDS011;37210;50.058;8.688;2023-07-24T10:26:03;24.13;;;21.77;;
51148;SDS011;37210;50.058;8.688;2023-07-24T10:28:32;22.83;;;20.42;;
51148;SDS011;37210;50.058;8.688;2023-07-24T10:31:04;7.07;;;6.20;;
51148;SDS011;37210;50.058;8.688;2023-07-24T10:33:35;8.63;;;6.30;;
51148;SDS011;37210;50.058;8.688;2023-07-24T10:36:10;18.33;;;16.48;;
51148;SDS011;37210;50.058;8.688;2023-07-24T10:38:40;6.25;;;5.03;;
51148;SDS011;37210;50.058;8.688;2023-07-24T10:41:10;10.68;;;9.73;;
51148;SDS011;37210;50.058;8.688;2023-07-24T10:43:42;22.58;;;20.25;;
51148;SDS011;37210;50.058;8.688;2023-07-24T10:46:11;12.55;;;11.35;;
51148;SDS011;37210;50.058;8.688;2023-07-24T10:48:41;19.10;;;17.35;;
51148;SDS011;37210;50.058;8.688;2023-07-24T10:51:10;31.05;;;27.95;;
51148;SDS011;37210;50.058;8.688;2023-07-24T10:53:41;17.27;;;15.63;;
51148;SDS011;37210;50.058;8.688;2023-07-24T10:56:13;36.00;;;32.65;;
51148;SDS011;37210;50.058;8.688;2023-07-24T10:58:42;22.65;;;20.27;;
51148;SDS011;37210;50.058;8.688;2023-07-24T11:01:10;12.57;;;11.38;;
51148;SDS011;37210;50.058;8.688;2023-07-24T11:03:38;29.60;;;26.83;;
51148;SDS011;37210;50.058;8.688;2023-07-24T11:06:11;5.20;;;4.55;;
51148;SDS011;37210;50.058;8.688;2023-07-24T11:08:41;40.78;;;36.25;;
51148;SDS011;37210;50.058;8.688;2023-07-24T11:11:09;16.48;;;14.52;;
51148;SDS011;37210;50.058;8.688;2023-07-24T11:13:39;6.00;;;4.30;;
51148;SDS011;37210;50.058;8.688;2023-07-24T11:16:07;10.75;;;9.77;;
51148;SDS011;37210;50.058;8.688;2023-07-24T11:18:43;23.85;;;21.55;;
51148;SDS011;37210;50.058;8.688;2023-07-24T11:21:12;32.20;;;29.08;;
51148;SDS011;37210;50.058;8.688;2023-07-24T11:23:44;20.63;;;18.60;;
51148;SDS011;37210;50.058;8.688;2023-07-24T11:26:14;7.47;;;5.53;;
51148;SDS011;37210;50.058;8.688;2023-07-24T11:28:43;14.10;;;12.52;;
51148;SDS011;37210;50.058;8.688;2023-07-24T11:31:11;20.70;;;18.60;;
51148;SDS011;37210;50.058;8.688;2023-07-24T11:33:40;11.90;;;10.73;;
51148;SDS011;37210;50.058;8.688;2023-07-24T11:36:10;13.57;;;12.20;;
51148;SDS011;37210;50.058;8.688;2023-07-24T11:38:38;26.65;;;24.17;;
51148;SDS011;37210;50.058;8.688;2023-07-24T11:41:07;6.93;;;6.25;;
51148;SDS011;37210;50.058;8.688;2023-07-24T11:43:48;10.80;;;9.27;;
51148;SDS011;37210;50.058;8.688;2023-07-24T11:46:23;6.40;;;5.30;;
51148;SDS011;37210;50.058;8.688;2023-07-24T11:48:52;7.37;;;6.67;;
51148;SDS011;37210;50.058;8.688;2023-07-24T11:51:22;11.50;;;10.35;;
51148;SDS011;37210;50.058;8.688;2023-07-24T11:53:50;5.50;;;4.75;;
51148;SDS011;37210;50.058;8.688;2023-07-24T11:56:19;6.93;;;4.50;;
51148;SDS011;37210;50.058;8.688;2023-07-24T11:58:49;5.80;;;5.25;;
51148;SDS011;37210;50.058;8.688;2023-07-24T12:01:16;5.05;;;4.55;;
51148;SDS011;37210;50.058;8.688;2023-07-24T12:03:44;9.10;;;8.32;;
51148;SDS011;37210;50.058;8.688;2023-07-24T12:06:14;7.63;;;6.93;;
51148;SDS011;37210;50.058;8.688;2023-07-24T12:08:42;6.15;;;5.22;;
51148;SDS011;37210;50.058;8.688;2023-07-24T12:11:15;4.75;;;4.32;;
51148;SDS011;37210;50.058;8.688;2023-07-24T12:13:43;8.32;;;6.78;;
51148;SDS011;37210;50.058;8.688;2023-07-24T12:16:12;7.78;;;6.72;;
51148;SDS011;37210;50.058;8.688;2023-07-24T12:18:39;8.68;;;7.70;;
51148;SDS011;37210;50.058;8.688;2023-07-24T12:21:06;4.80;;;4.05;;
51148;SDS011;37210;50.058;8.688;2023-07-24T12:23:34;5.95;;;5.35;;
51148;SDS011;37210;50.058;8.688;2023-07-24T12:26:01;7.25;;;6.55;;
51148;SDS011;37210;50.058;8.688;2023-07-24T12:28:29;9.20;;;8.30;;
51148;SDS011;37210;50.058;8.688;2023-07-24T12:30:56;8.38;;;5.88;;
51148;SDS011;37210;50.058;8.688;2023-07-24T12:33:25;4.82;;;4.43;;
51148;SDS011;37210;50.058;8.688;2023-07-24T12:35:52;6.45;;;4.80;;
51148;SDS011;37210;50.058;8.688;2023-07-24T12:38:20;10.52;;;8.65;;
51148;SDS011;37210;50.058;8.688;2023-07-24T12:40:47;4.53;;;4.13;;
51148;SDS011;37210;50.058;8.688;2023-07-24T12:43:15;5.32;;;3.85;;
51148;SDS011;37210;50.058;8.688;2023-07-24T12:45:42;5.78;;;4.00;;
51148;SDS011;37210;50.058;8.688;2023-07-24T12:48:10;7.30;;;6.53;;
51148;SDS011;37210;50.058;8.688;2023-07-24T12:50:38;9.20;;;4.22;;
51148;SDS011;37210;50.058;8.688;2023-07-24T12:53:06;5.43;;;4.25;;
51148;SDS011;37210;50.058;8.688;2023-07-24T12:55:36;4.72;;;3.75;;
51148;SDS011;37210;50.058;8.688;2023-07-24T12:58:04;8.73;;;7.80;;
51148;SDS011;37210;50.058;8.688;2023-07-24T13:00:31;5.90;;;4.57;;
51148;SDS011;37210;50.058;8.688;2023-07-24T13:02:58;6.47;;;3.70;;
51148;SDS011;37210;50.058;8.688;2023-07-24T13:05:26;5.82;;;4.35;;
51148;SDS011;37210;50.058;8.688;2023-07-24T13:07:55;4.50;;;4.10;;
51148;SDS011;37210;50.058;8.688;2023-07-24T13:10:22;5.93;;;3.85;;
51148;SDS011;37210;50.058;8.688;2023-07-24T13:12:50;5.30;;;3.75;;
51148;SDS011;37210;50.058;8.688;2023-07-24T13:15:17;7.15;;;5.00;;
51148;SDS011;37210;50.058;8.688;2023-07-24T13:17:44;4.53;;;4.13;;
51148;SDS011;37210;50.058;8.688;2023-07-24T13:20:14;4.88;;;4.38;;
51148;SDS011;37210;50.058;8.688;2023-07-24T13:22:41;5.10;;;4.40;;
51148;SDS011;37210;50.058;8.688;2023-07-24T13:25:13;4.25;;;3.63;;
51148;SDS011;37210;50.058;8.688;2023-07-24T13:27:41;4.68;;;3.97;;
51148;SDS011;37210;50.058;8.688;2023-07-24T13:30:09;6.22;;;5.60;;
51148;SDS011;37210;50.058;8.688;2023-07-24T13:32:37;6.22;;;5.63;;
51148;SDS011;37210;50.058;8.688;2023-07-24T13:35:05;5.80;;;4.82;;
51148;SDS011;37210;50.058;8.688;2023-07-24T13:37:33;7.47;;;6.05;;
51148;SDS011;37210;50.058;8.688;2023-07-24T13:40:01;5.00;;;4.50;;
51148;SDS011;37210;50.058;8.688;2023-07-24T13:42:31;5.75;;;5.00;;
51148;SDS011;37210;50.058;8.688;2023-07-24T13:44:59;5.63;;;5.13;;
51148;SDS011;37210;50.058;8.688;2023-07-24T13:47:26;5.47;;;4.97;;
51148;SDS011;37210;50.058;8.688;2023-07-24T13:49:54;7.78;;;6.97;;
51148;SDS011;37210;50.058;8.688;2023-07-24T13:52:21;24.83;;;22.38;;
51148;SDS011;37210;50.058;8.688;2023-07-24T13:54:49;6.97;;;6.38;;
51148;SDS011;37210;50.058;8.688;2023-07-24T13:57:16;7.78;;;6.97;;
51148;SDS011;37210;50.058;8.688;2023-07-24T13:59:45;10.15;;;7.03;;
51148;SDS011;37210;50.058;8.688;2023-07-24T14:02:13;8.45;;;6.60;;
51148;SDS011;37210;50.058;8.688;2023-07-24T14:04:40;8.18;;;7.25;;
51148;SDS011;37210;50.058;8.688;2023-07-24T14:07:08;7.43;;;6.65;;
51148;SDS011;37210;50.058;8.688;2023-07-24T14:09:35;6.00;;;4.75;;
51148;SDS011;37210;50.058;8.688;2023-07-24T14:12:03;6.82;;;6.15;;
51148;SDS011;37210;50.058;8.688;2023-07-24T14:14:31;7.78;;;7.00;;
51148;SDS011;37210;50.058;8.688;2023-07-24T14:17:00;6.40;;;5.75;;
51148;SDS011;37210;50.058;8.688;2023-07-24T14:19:28;5.90;;;5.35;;
51148;SDS011;37210;50.058;8.688;2023-07-24T14:21:55;6.75;;;6.15;;
51148;SDS011;37210;50.058;8.688;2023-07-24T14:24:23;8.70;;;7.85;;
51148;SDS011;37210;50.058;8.688;2023-07-24T14:26:50;6.85;;;6.18;;
51148;SDS011;37210;50.058;8.688;2023-07-24T14:29:18;7.68;;;5.90;;
51148;SDS011;37210;50.058;8.688;2023-07-24T14:31:45;11.63;;;10.52;;
51148;SDS011;37210;50.058;8.688;2023-07-24T14:34:15;19.40;;;17.38;;
51148;SDS011;37210;50.058;8.688;2023-07-24T14:36:42;7.57;;;6.25;;
51148;SDS011;37210;50.058;8.688;2023-07-24T14:39:10;6.88;;;6.25;;
51148;SDS011;37210;50.058;8.688;2023-07-24T14:41:38;7.90;;;7.10;;
51148;SDS011;37210;50.058;8.688;2023-07-24T14:44:05;6.45;;;5.72;;
51148;SDS011;37210;50.058;8.688;2023-07-24T14:46:33;8.32;;;7.28;;
51148;SDS011;37210;50.058;8.688;2023-07-24T14:49:00;10.95;;;9.75;;
51148;SDS011;37210;50.058;8.688;2023-07-24T14:51:29;6.28;;;5.75;;
51148;SDS011;37210;50.058;8.688;2023-07-24T14:53:56;6.22;;;5.30;;